sensor_id;sensor_type;location;lat;lon;timestamp;P1;durP1;ratioP1;P2;durP2;ratioP2
2892;SDS011;1456;51.840;12.184;2022-07-29T00:00:06;10.27;;;10.17;;
2892;SDS011;1456;51.840;12.184;2022-07-29T00:02:33;10.57;;;10.37;;
2892;SDS011;1456;51.840;12.184;2022-07-29T00:04:59;11.73;;;10.90;;
2892;SDS011;1456;51.840;12.184;2022-07-29T00:07:24;12.23;;;11.73;;
2892;SDS011;1456;51.840;12.184;2022-07-29T00:09:50;10.60;;;10.40;;
2892;SDS011;1456;51.840;12.184;2022-07-29T00:12:16;10.27;;;10.10;;
2892;SDS011;1456;51.840;12.184;2022-07-29T00:14:41;10.60;;;10.40;;
2892;SDS011;1456;51.840;12.184;2022-07-29T00:17:08;10.40;;;10.20;;
2892;SDS011;1456;51.840;12.184;2022-07-29T00:19:34;10.13;;;10.03;;
2892;SDS011;1456;51.840;12.184;2022-07-29T00:22:00;9.93;;;9.83;;
2892;SDS011;1456;51.840;12.184;2022-07-29T00:24:26;9.80;;;9.70;;
2892;SDS011;1456;51.840;12.184;2022-07-29T00:26:52;10.30;;;10.10;;
2892;SDS011;1456;51.840;12.184;2022-07-29T00:29:17;10.90;;;10.70;;
2892;SDS011;1456;51.840;12.184;2022-07-29T00:31:44;10.50;;;10.30;;
2892;SDS011;1456;51.840;12.184;2022-07-29T00:34:10;9.93;;;9.83;;
2892;SDS011;1456;51.840;12.184;2022-07-29T00:36:54;10.43;;;10.33;;
2892;SDS011;1456;51.840;12.184;2022-07-29T00:39:20;10.60;;;10.40;;
2892;SDS011;1456;51.840;12.184;2022-07-29T00:41:46;10.40;;;10.20;;
2892;SDS011;1456;51.840;12.184;2022-07-29T00:44:11;10.63;;;10.43;;
2892;SDS011;1456;51.840;12.184;2022-07-29T00:46:37;9.77;;;9.67;;
2892;SDS011;1456;51.840;12.184;2022-07-29T00:49:03;11.47;;;11.17;;
2892;SDS011;1456;51.840;12.184;2022-07-29T00:51:28;9.70;;;9.50;;
2892;SDS011;1456;51.840;12.184;2022-07-29T00:53:56;9.93;;;9.83;;
2892;SDS011;1456;51.840;12.184;2022-07-29T00:56:22;9.73;;;9.63;;
2892;SDS011;1456;51.840;12.184;2022-07-29T00:58:47;10.17;;;9.97;;
2892;SDS011;1456;51.840;12.184;2022-07-29T01:01:16;9.57;;;9.47;;
2892;SDS011;1456;51.840;12.184;2022-07-29T01:03:41;9.40;;;9.30;;
2892;SDS011;1456;51.840;12.184;2022-07-29T01:06:09;10.57;;;10.37;;
2892;SDS011;1456;51.840;12.184;2022-07-29T01:08:35;10.40;;;10.20;;
2892;SDS011;1456;51.840;12.184;2022-07-29T01:11:01;10.07;;;9.97;;
2892;SDS011;1456;51.840;12.184;2022-07-29T01:13:29;10.17;;;10.00;;
2892;SDS011;1456;51.840;12.184;2022-07-29T01:16:00;9.70;;;9.60;;
2892;SDS011;1456;51.840;12.184;2022-07-29T01:18:53;9.90;;;9.80;;
2892;SDS011;1456;51.840;12.184;2022-07-29T01:21:50;10.03;;;9.93;;
2892;SDS011;1456;51.840;12.184;2022-07-29T01:30:05;10.77;;;10.30;;
2892;SDS011;1456;51.840;12.184;2022-07-29T01:32:32;10.00;;;9.90;;
2892;SDS011;1456;51.840;12.184;2022-07-29T01:35:15;10.10;;;9.90;;
2892;SDS011;1456;51.840;12.184;2022-07-29T01:38:05;9.60;;;9.50;;
2892;SDS011;1456;51.840;12.184;2022-07-29T01:40:46;10.10;;;9.90;;
2892;SDS011;1456;51.840;12.184;2022-07-29T01:43:17;10.10;;;10.00;;
2892;SDS011;1456;51.840;12.184;2022-07-29T01:45:53;10.67;;;10.47;;
2892;SDS011;1456;51.840;12.184;2022-07-29T01:51:52;11.00;;;10.80;;
2892;SDS011;1456;51.840;12.184;2022-07-29T01:57:08;10.33;;;10.13;;
2892;SDS011;1456;51.840;12.184;2022-07-29T01:59:37;10.57;;;10.37;;
2892;SDS011;1456;51.840;12.184;2022-07-29T02:02:06;9.60;;;9.50;;
2892;SDS011;1456;51.840;12.184;2022-07-29T02:04:33;9.60;;;9.50;;
2892;SDS011;1456;51.840;12.184;2022-07-29T02:07:02;10.13;;;9.87;;
2892;SDS011;1456;51.840;12.184;2022-07-29T02:09:31;10.17;;;9.97;;
2892;SDS011;1456;51.840;12.184;2022-07-29T02:12:00;10.00;;;9.90;;
2892;SDS011;1456;51.840;12.184;2022-07-29T02:14:30;10.40;;;10.20;;
2892;SDS011;1456;51.840;12.184;2022-07-29T02:17:01;27.43;;;11.97;;
2892;SDS011;1456;51.840;12.184;2022-07-29T02:19:28;10.60;;;10.40;;
2892;SDS011;1456;51.840;12.184;2022-07-29T02:21:56;11.33;;;11.03;;
2892;SDS011;1456;51.840;12.184;2022-07-29T02:24:25;10.80;;;10.60;;
2892;SDS011;1456;51.840;12.184;2022-07-29T02:26:53;10.00;;;9.90;;
2892;SDS011;1456;51.840;12.184;2022-07-29T02:29:23;9.30;;;9.20;;
2892;SDS011;1456;51.840;12.184;2022-07-29T02:31:51;10.93;;;10.70;;
2892;SDS011;1456;51.840;12.184;2022-07-29T02:34:19;9.90;;;9.80;;
2892;SDS011;1456;51.840;12.184;2022-07-29T02:36:46;9.97;;;9.87;;
2892;SDS011;1456;51.840;12.184;2022-07-29T02:39:13;9.40;;;9.30;;
2892;SDS011;1456;51.840;12.184;2022-07-29T02:41:45;9.90;;;9.80;;
2892;SDS011;1456;51.840;12.184;2022-07-29T02:44:16;9.87;;;9.67;;
2892;SDS011;1456;51.840;12.184;2022-07-29T02:52:06;9.40;;;9.30;;
2892;SDS011;1456;51.840;12.184;2022-07-29T02:54:51;10.00;;;9.80;;
2892;SDS011;1456;51.840;12.184;2022-07-29T02:59:54;9.97;;;9.87;;
2892;SDS011;1456;51.840;12.184;2022-07-29T03:02:25;11.10;;;10.80;;
2892;SDS011;1456;51.840;12.184;2022-07-29T03:04:52;10.80;;;10.60;;
2892;SDS011;1456;51.840;12.184;2022-07-29T03:07:19;10.20;;;10.00;;
2892;SDS011;1456;51.840;12.184;2022-07-29T03:09:48;10.23;;;10.03;;
2892;SDS011;1456;51.840;12.184;2022-07-29T03:12:15;10.00;;;9.90;;
2892;SDS011;1456;51.840;12.184;2022-07-29T03:14:42;11.60;;;11.10;;
2892;SDS011;1456;51.840;12.184;2022-07-29T03:17:09;10.67;;;10.47;;
2892;SDS011;1456;51.840;12.184;2022-07-29T03:19:35;10.47;;;10.27;;
2892;SDS011;1456;51.840;12.184;2022-07-29T03:22:01;10.50;;;10.30;;
2892;SDS011;1456;51.840;12.184;2022-07-29T03:24:36;9.77;;;9.57;;
2892;SDS011;1456;51.840;12.184;2022-07-29T03:27:03;9.83;;;9.73;;
2892;SDS011;1456;51.840;12.184;2022-07-29T03:29:30;9.80;;;9.70;;
2892;SDS011;1456;51.840;12.184;2022-07-29T03:31:56;10.20;;;10.00;;
2892;SDS011;1456;51.840;12.184;2022-07-29T03:34:22;12.27;;;11.50;;
2892;SDS011;1456;51.840;12.184;2022-07-29T03:36:48;10.80;;;10.60;;
2892;SDS011;1456;51.840;12.184;2022-07-29T03:39:15;9.83;;;9.63;;
2892;SDS011;1456;51.840;12.184;2022-07-29T03:41:46;9.80;;;9.60;;
2892;SDS011;1456;51.840;12.184;2022-07-29T03:44:15;10.83;;;10.53;;
2892;SDS011;1456;51.840;12.184;2022-07-29T03:46:43;9.37;;;9.27;;
2892;SDS011;1456;51.840;12.184;2022-07-29T03:49:10;9.40;;;9.20;;
2892;SDS011;1456;51.840;12.184;2022-07-29T03:51:39;9.87;;;9.67;;
2892;SDS011;1456;51.840;12.184;2022-07-29T03:54:05;9.30;;;9.20;;
2892;SDS011;1456;51.840;12.184;2022-07-29T03:56:32;9.97;;;9.77;;
2892;SDS011;1456;51.840;12.184;2022-07-29T03:59:01;8.90;;;8.80;;
2892;SDS011;1456;51.840;12.184;2022-07-29T04:01:28;8.83;;;8.73;;
2892;SDS011;1456;51.840;12.184;2022-07-29T04:03:55;8.70;;;8.60;;
2892;SDS011;1456;51.840;12.184;2022-07-29T04:06:21;8.93;;;8.83;;
2892;SDS011;1456;51.840;12.184;2022-07-29T04:08:47;9.17;;;8.97;;
2892;SDS011;1456;51.840;12.184;2022-07-29T04:11:12;9.23;;;9.10;;
2892;SDS011;1456;51.840;12.184;2022-07-29T04:13:38;9.27;;;8.97;;
2892;SDS011;1456;51.840;12.184;2022-07-29T04:16:04;9.17;;;8.97;;
2892;SDS011;1456;51.840;12.184;2022-07-29T04:18:30;9.13;;;9.03;;
2892;SDS011;1456;51.840;12.184;2022-07-29T04:20:55;9.10;;;9.00;;
2892;SDS011;1456;51.840;12.184;2022-07-29T04:23:25;10.07;;;9.77;;
2892;SDS011;1456;51.840;12.184;2022-07-29T04:25:51;9.57;;;9.47;;
2892;SDS011;1456;51.840;12.184;2022-07-29T04:28:16;9.23;;;9.13;;
2892;SDS011;1456;51.840;12.184;2022-07-29T04:30:43;9.40;;;9.30;;
2892;SDS011;1456;51.840;12.184;2022-07-29T04:33:09;9.17;;;9.07;;
2892;SDS011;1456;51.840;12.184;2022-07-29T04:35:35;9.37;;;9.27;;
2892;SDS011;1456;51.840;12.184;2022-07-29T04:38:02;9.17;;;8.97;;
2892;SDS011;1456;51.840;12.184;2022-07-29T04:40:29;9.43;;;9.23;;
2892;SDS011;1456;51.840;12.184;2022-07-29T04:42:55;10.13;;;9.93;;
2892;SDS011;1456;51.840;12.184;2022-07-29T04:45:21;10.03;;;9.87;;
2892;SDS011;1456;51.840;12.184;2022-07-29T04:47:47;8.70;;;8.60;;
2892;SDS011;1456;51.840;12.184;2022-07-29T04:50:13;9.80;;;9.60;;
2892;SDS011;1456;51.840;12.184;2022-07-29T04:52:38;9.83;;;9.50;;
2892;SDS011;1456;51.840;12.184;2022-07-29T04:55:05;10.53;;;10.23;;
2892;SDS011;1456;51.840;12.184;2022-07-29T04:57:31;10.20;;;10.10;;
2892;SDS011;1456;51.840;12.184;2022-07-29T04:59:58;10.50;;;10.20;;
2892;SDS011;1456;51.840;12.184;2022-07-29T05:02:24;9.20;;;9.07;;
2892;SDS011;1456;51.840;12.184;2022-07-29T05:04:49;9.10;;;9.00;;
2892;SDS011;1456;51.840;12.184;2022-07-29T05:07:15;9.70;;;9.50;;
2892;SDS011;1456;51.840;12.184;2022-07-29T05:09:41;9.10;;;9.00;;
2892;SDS011;1456;51.840;12.184;2022-07-29T05:12:06;9.90;;;9.70;;
2892;SDS011;1456;51.840;12.184;2022-07-29T05:14:32;9.20;;;9.10;;
2892;SDS011;1456;51.840;12.184;2022-07-29T05:16:58;9.83;;;9.73;;
2892;SDS011;1456;51.840;12.184;2022-07-29T05:19:25;9.10;;;9.00;;
2892;SDS011;1456;51.840;12.184;2022-07-29T05:21:51;9.60;;;9.40;;
2892;SDS011;1456;51.840;12.184;2022-07-29T05:24:16;9.33;;;9.23;;
2892;SDS011;1456;51.840;12.184;2022-07-29T05:26:44;10.87;;;10.53;;
2892;SDS011;1456;51.840;12.184;2022-07-29T05:29:10;10.13;;;9.93;;
2892;SDS011;1456;51.840;12.184;2022-07-29T05:31:37;9.50;;;9.30;;
2892;SDS011;1456;51.840;12.184;2022-07-29T05:34:02;9.90;;;9.70;;
2892;SDS011;1456;51.840;12.184;2022-07-29T05:36:28;9.73;;;9.63;;
2892;SDS011;1456;51.840;12.184;2022-07-29T05:38:54;9.33;;;9.23;;
2892;SDS011;1456;51.840;12.184;2022-07-29T05:41:19;9.10;;;9.00;;
2892;SDS011;1456;51.840;12.184;2022-07-29T05:43:47;9.80;;;9.40;;
2892;SDS011;1456;51.840;12.184;2022-07-29T05:46:12;10.07;;;9.60;;
2892;SDS011;1456;51.840;12.184;2022-07-29T05:48:39;9.10;;;8.90;;
2892;SDS011;1456;51.840;12.184;2022-07-29T05:51:04;9.50;;;9.30;;
2892;SDS011;1456;51.840;12.184;2022-07-29T05:53:30;9.80;;;9.60;;
2892;SDS011;1456;51.840;12.184;2022-07-29T05:55:56;9.73;;;9.53;;
2892;SDS011;1456;51.840;12.184;2022-07-29T05:58:23;9.17;;;9.07;;
2892;SDS011;1456;51.840;12.184;2022-07-29T06:00:48;12.00;;;11.60;;
2892;SDS011;1456;51.840;12.184;2022-07-29T06:03:14;9.70;;;9.60;;
2892;SDS011;1456;51.840;12.184;2022-07-29T06:05:40;9.97;;;9.77;;
2892;SDS011;1456;51.840;12.184;2022-07-29T06:08:06;10.17;;;10.07;;
2892;SDS011;1456;51.840;12.184;2022-07-29T06:10:32;9.90;;;9.73;;
2892;SDS011;1456;51.840;12.184;2022-07-29T06:13:00;10.27;;;10.10;;
2892;SDS011;1456;51.840;12.184;2022-07-29T06:15:26;10.97;;;10.77;;
2892;SDS011;1456;51.840;12.184;2022-07-29T06:17:52;10.40;;;10.10;;
2892;SDS011;1456;51.840;12.184;2022-07-29T06:20:18;10.07;;;9.97;;
2892;SDS011;1456;51.840;12.184;2022-07-29T06:22:43;10.90;;;10.70;;
2892;SDS011;1456;51.840;12.184;2022-07-29T06:25:09;10.70;;;10.30;;
2892;SDS011;1456;51.840;12.184;2022-07-29T06:27:35;9.77;;;9.67;;
2892;SDS011;1456;51.840;12.184;2022-07-29T06:30:00;10.00;;;9.80;;
2892;SDS011;1456;51.840;12.184;2022-07-29T06:32:27;10.63;;;10.43;;
2892;SDS011;1456;51.840;12.184;2022-07-29T06:34:53;10.70;;;10.50;;
2892;SDS011;1456;51.840;12.184;2022-07-29T06:37:19;10.40;;;10.10;;
2892;SDS011;1456;51.840;12.184;2022-07-29T06:39:44;10.07;;;9.87;;
2892;SDS011;1456;51.840;12.184;2022-07-29T06:42:10;11.60;;;11.20;;
2892;SDS011;1456;51.840;12.184;2022-07-29T06:44:35;9.97;;;9.87;;
2892;SDS011;1456;51.840;12.184;2022-07-29T06:47:01;10.87;;;10.67;;
2892;SDS011;1456;51.840;12.184;2022-07-29T06:49:28;10.53;;;10.33;;
2892;SDS011;1456;51.840;12.184;2022-07-29T06:51:54;10.50;;;10.30;;
2892;SDS011;1456;51.840;12.184;2022-07-29T06:54:20;10.80;;;10.50;;
2892;SDS011;1456;51.840;12.184;2022-07-29T06:56:46;13.60;;;12.73;;
2892;SDS011;1456;51.840;12.184;2022-07-29T06:59:12;11.40;;;11.00;;
2892;SDS011;1456;51.840;12.184;2022-07-29T07:01:39;11.90;;;11.50;;
2892;SDS011;1456;51.840;12.184;2022-07-29T07:04:08;9.97;;;9.87;;
2892;SDS011;1456;51.840;12.184;2022-07-29T07:06:34;9.30;;;9.20;;
2892;SDS011;1456;51.840;12.184;2022-07-29T07:09:00;10.70;;;10.40;;
2892;SDS011;1456;51.840;12.184;2022-07-29T07:11:26;10.97;;;10.57;;
2892;SDS011;1456;51.840;12.184;2022-07-29T07:13:52;9.97;;;9.83;;
2892;SDS011;1456;51.840;12.184;2022-07-29T07:16:18;9.90;;;9.70;;
2892;SDS011;1456;51.840;12.184;2022-07-29T07:18:44;10.73;;;10.43;;
2892;SDS011;1456;51.840;12.184;2022-07-29T07:21:10;10.77;;;10.57;;
2892;SDS011;1456;51.840;12.184;2022-07-29T07:23:36;11.50;;;11.20;;
2892;SDS011;1456;51.840;12.184;2022-07-29T07:26:02;10.20;;;10.00;;
2892;SDS011;1456;51.840;12.184;2022-07-29T07:28:28;9.97;;;9.87;;
2892;SDS011;1456;51.840;12.184;2022-07-29T07:30:56;11.13;;;10.93;;
2892;SDS011;1456;51.840;12.184;2022-07-29T07:33:22;9.77;;;9.60;;
2892;SDS011;1456;51.840;12.184;2022-07-29T07:35:48;10.30;;;10.10;;
2892;SDS011;1456;51.840;12.184;2022-07-29T07:38:14;9.93;;;9.83;;
2892;SDS011;1456;51.840;12.184;2022-07-29T07:40:40;10.20;;;10.00;;
2892;SDS011;1456;51.840;12.184;2022-07-29T07:43:06;9.90;;;9.70;;
2892;SDS011;1456;51.840;12.184;2022-07-29T07:45:31;10.60;;;10.40;;
2892;SDS011;1456;51.840;12.184;2022-07-29T07:47:58;10.10;;;10.00;;
2892;SDS011;1456;51.840;12.184;2022-07-29T07:50:24;10.40;;;10.20;;
2892;SDS011;1456;51.840;12.184;2022-07-29T07:52:51;10.23;;;9.83;;
2892;SDS011;1456;51.840;12.184;2022-07-29T07:55:19;9.47;;;9.30;;
2892;SDS011;1456;51.840;12.184;2022-07-29T07:57:45;12.00;;;11.50;;
2892;SDS011;1456;51.840;12.184;2022-07-29T08:00:12;10.17;;;9.97;;
2892;SDS011;1456;51.840;12.184;2022-07-29T08:02:39;10.37;;;9.97;;
2892;SDS011;1456;51.840;12.184;2022-07-29T08:05:05;9.53;;;9.43;;
2892;SDS011;1456;51.840;12.184;2022-07-29T08:07:32;10.03;;;9.83;;
2892;SDS011;1456;51.840;12.184;2022-07-29T08:09:58;10.60;;;10.40;;
2892;SDS011;1456;51.840;12.184;2022-07-29T08:12:24;10.73;;;10.53;;
2892;SDS011;1456;51.840;12.184;2022-07-29T08:14:49;11.33;;;10.97;;
2892;SDS011;1456;51.840;12.184;2022-07-29T08:17:15;10.57;;;10.37;;
2892;SDS011;1456;51.840;12.184;2022-07-29T08:19:41;11.40;;;11.20;;
2892;SDS011;1456;51.840;12.184;2022-07-29T08:22:06;11.77;;;11.47;;
2892;SDS011;1456;51.840;12.184;2022-07-29T08:24:32;11.83;;;11.53;;
2892;SDS011;1456;51.840;12.184;2022-07-29T08:27:18;10.50;;;10.30;;
2892;SDS011;1456;51.840;12.184;2022-07-29T08:29:45;10.83;;;10.53;;
2892;SDS011;1456;51.840;12.184;2022-07-29T08:32:10;10.10;;;10.00;;
2892;SDS011;1456;51.840;12.184;2022-07-29T08:34:36;10.77;;;10.57;;
2892;SDS011;1456;51.840;12.184;2022-07-29T08:37:03;9.77;;;9.67;;
2892;SDS011;1456;51.840;12.184;2022-07-29T08:39:28;10.03;;;9.93;;
2892;SDS011;1456;51.840;12.184;2022-07-29T08:41:54;10.87;;;10.47;;
2892;SDS011;1456;51.840;12.184;2022-07-29T08:44:20;11.30;;;10.80;;
2892;SDS011;1456;51.840;12.184;2022-07-29T08:46:47;9.60;;;9.50;;
2892;SDS011;1456;51.840;12.184;2022-07-29T08:49:14;10.53;;;10.33;;
2892;SDS011;1456;51.840;12.184;2022-07-29T08:51:40;10.17;;;9.97;;
2892;SDS011;1456;51.840;12.184;2022-07-29T08:54:07;10.93;;;10.60;;
2892;SDS011;1456;51.840;12.184;2022-07-29T08:56:34;10.50;;;10.30;;
2892;SDS011;1456;51.840;12.184;2022-07-29T08:59:02;10.03;;;9.93;;
2892;SDS011;1456;51.840;12.184;2022-07-29T09:01:30;10.50;;;10.30;;
2892;SDS011;1456;51.840;12.184;2022-07-29T09:04:01;10.60;;;10.40;;
2892;SDS011;1456;51.840;12.184;2022-07-29T09:06:29;10.47;;;10.10;;
2892;SDS011;1456;51.840;12.184;2022-07-29T09:08:59;10.13;;;9.93;;
2892;SDS011;1456;51.840;12.184;2022-07-29T09:11:25;10.10;;;9.93;;
2892;SDS011;1456;51.840;12.184;2022-07-29T09:13:52;9.90;;;9.70;;
2892;SDS011;1456;51.840;12.184;2022-07-29T09:16:17;10.63;;;10.43;;
2892;SDS011;1456;51.840;12.184;2022-07-29T09:18:44;11.17;;;10.90;;
2892;SDS011;1456;51.840;12.184;2022-07-29T09:21:12;10.90;;;10.70;;
2892;SDS011;1456;51.840;12.184;2022-07-29T09:24:03;11.83;;;11.27;;
2892;SDS011;1456;51.840;12.184;2022-07-29T09:26:32;10.90;;;10.70;;
2892;SDS011;1456;51.840;12.184;2022-07-29T09:29:01;10.50;;;10.20;;
2892;SDS011;1456;51.840;12.184;2022-07-29T09:31:34;9.93;;;9.83;;
2892;SDS011;1456;51.840;12.184;2022-07-29T09:34:02;10.60;;;10.30;;
2892;SDS011;1456;51.840;12.184;2022-07-29T09:36:28;10.50;;;10.30;;
2892;SDS011;1456;51.840;12.184;2022-07-29T09:38:58;10.80;;;10.60;;
2892;SDS011;1456;51.840;12.184;2022-07-29T09:41:25;11.53;;;11.23;;
2892;SDS011;1456;51.840;12.184;2022-07-29T09:43:56;10.10;;;9.90;;
2892;SDS011;1456;51.840;12.184;2022-07-29T09:46:23;10.13;;;9.93;;
2892;SDS011;1456;51.840;12.184;2022-07-29T09:49:08;9.47;;;9.33;;
2892;SDS011;1456;51.840;12.184;2022-07-29T09:51:36;10.50;;;10.20;;
2892;SDS011;1456;51.840;12.184;2022-07-29T09:54:03;10.70;;;10.50;;
2892;SDS011;1456;51.840;12.184;2022-07-29T09:56:51;10.50;;;10.30;;
2892;SDS011;1456;51.840;12.184;2022-07-29T09:59:18;9.90;;;9.80;;
2892;SDS011;1456;51.840;12.184;2022-07-29T10:01:47;10.40;;;10.10;;
2892;SDS011;1456;51.840;12.184;2022-07-29T10:04:15;10.77;;;10.37;;
2892;SDS011;1456;51.840;12.184;2022-07-29T10:07:14;10.50;;;10.30;;
2892;SDS011;1456;51.840;12.184;2022-07-29T10:09:34;11.20;;;11.00;;
2892;SDS011;1456;51.840;12.184;2022-07-29T10:14:30;22.37;;;21.87;;
2892;SDS011;1456;51.840;12.184;2022-07-29T10:16:59;20.93;;;20.43;;
2892;SDS011;1456;51.840;12.184;2022-07-29T10:19:29;24.53;;;23.50;;
2892;SDS011;1456;51.840;12.184;2022-07-29T10:21:57;23.53;;;22.93;;
2892;SDS011;1456;51.840;12.184;2022-07-29T10:24:24;25.13;;;24.00;;
2892;SDS011;1456;51.840;12.184;2022-07-29T10:26:55;25.07;;;24.33;;
2892;SDS011;1456;51.840;12.184;2022-07-29T10:29:22;25.20;;;24.57;;
2892;SDS011;1456;51.840;12.184;2022-07-29T10:34:23;11.57;;;11.37;;
2892;SDS011;1456;51.840;12.184;2022-07-29T10:37:25;21.30;;;20.80;;
2892;SDS011;1456;51.840;12.184;2022-07-29T10:43:43;20.60;;;20.10;;
2892;SDS011;1456;51.840;12.184;2022-07-29T10:46:11;19.43;;;11.60;;
2892;SDS011;1456;51.840;12.184;2022-07-29T10:54:37;19.13;;;18.73;;
2892;SDS011;1456;51.840;12.184;2022-07-29T10:59:37;11.20;;;11.00;;
2892;SDS011;1456;51.840;12.184;2022-07-29T11:02:40;22.40;;;21.90;;
2892;SDS011;1456;51.840;12.184;2022-07-29T11:04:59;21.30;;;20.80;;
2892;SDS011;1456;51.840;12.184;2022-07-29T11:07:33;22.03;;;21.53;;
2892;SDS011;1456;51.840;12.184;2022-07-29T11:15:04;12.50;;;12.10;;
2892;SDS011;1456;51.840;12.184;2022-07-29T11:18:17;22.13;;;21.53;;
2892;SDS011;1456;51.840;12.184;2022-07-29T11:22:59;24.80;;;24.10;;
2892;SDS011;1456;51.840;12.184;2022-07-29T11:25:26;23.27;;;22.57;;
2892;SDS011;1456;51.840;12.184;2022-07-29T11:27:52;13.93;;;13.33;;
2892;SDS011;1456;51.840;12.184;2022-07-29T11:30:50;17.63;;;17.13;;
2892;SDS011;1456;51.840;12.184;2022-07-29T11:33:33;26.40;;;25.50;;
2892;SDS011;1456;51.840;12.184;2022-07-29T11:36:32;25.90;;;25.20;;
2892;SDS011;1456;51.840;12.184;2022-07-29T11:38:51;20.50;;;20.00;;
2892;SDS011;1456;51.840;12.184;2022-07-29T11:41:19;20.73;;;20.23;;
2892;SDS011;1456;51.840;12.184;2022-07-29T11:46:16;12.00;;;11.80;;
2892;SDS011;1456;51.840;12.184;2022-07-29T11:49:00;20.90;;;20.40;;
2892;SDS011;1456;51.840;12.184;2022-07-29T11:51:28;19.73;;;19.23;;
2892;SDS011;1456;51.840;12.184;2022-07-29T11:53:55;21.20;;;20.50;;
2892;SDS011;1456;51.840;12.184;2022-07-29T11:56:21;19.70;;;19.10;;
2892;SDS011;1456;51.840;12.184;2022-07-29T11:58:50;12.87;;;12.57;;
2892;SDS011;1456;51.840;12.184;2022-07-29T12:01:27;12.27;;;12.07;;
2892;SDS011;1456;51.840;12.184;2022-07-29T12:04:01;12.47;;;12.17;;
2892;SDS011;1456;51.840;12.184;2022-07-29T12:06:28;12.57;;;12.27;;
2892;SDS011;1456;51.840;12.184;2022-07-29T12:08:54;12.60;;;12.30;;
2892;SDS011;1456;51.840;12.184;2022-07-29T12:11:20;12.60;;;12.30;;
2892;SDS011;1456;51.840;12.184;2022-07-29T12:13:46;13.33;;;13.00;;
2892;SDS011;1456;51.840;12.184;2022-07-29T12:16:12;12.27;;;11.97;;
2892;SDS011;1456;51.840;12.184;2022-07-29T12:18:37;12.00;;;11.80;;
2892;SDS011;1456;51.840;12.184;2022-07-29T12:21:03;12.53;;;12.23;;
2892;SDS011;1456;51.840;12.184;2022-07-29T12:23:29;12.87;;;12.47;;
2892;SDS011;1456;51.840;12.184;2022-07-29T12:25:55;12.87;;;12.57;;
2892;SDS011;1456;51.840;12.184;2022-07-29T12:28:23;23.60;;;23.00;;
2892;SDS011;1456;51.840;12.184;2022-07-29T12:30:49;22.80;;;22.20;;
2892;SDS011;1456;51.840;12.184;2022-07-29T12:33:25;23.50;;;22.80;;
2892;SDS011;1456;51.840;12.184;2022-07-29T12:35:57;22.17;;;21.47;;
2892;SDS011;1456;51.840;12.184;2022-07-29T12:38:24;23.33;;;22.63;;
2892;SDS011;1456;51.840;12.184;2022-07-29T12:40:51;21.43;;;20.90;;
2892;SDS011;1456;51.840;12.184;2022-07-29T12:43:18;21.70;;;21.10;;
2892;SDS011;1456;51.840;12.184;2022-07-29T12:45:49;22.30;;;21.43;;
2892;SDS011;1456;51.840;12.184;2022-07-29T12:48:38;21.43;;;20.83;;
2892;SDS011;1456;51.840;12.184;2022-07-29T12:51:05;22.47;;;21.73;;
2892;SDS011;1456;51.840;12.184;2022-07-29T12:53:33;22.23;;;21.63;;
2892;SDS011;1456;51.840;12.184;2022-07-29T12:55:59;21.83;;;21.20;;
2892;SDS011;1456;51.840;12.184;2022-07-29T12:58:35;22.07;;;21.47;;
2892;SDS011;1456;51.840;12.184;2022-07-29T13:01:04;20.20;;;19.70;;
2892;SDS011;1456;51.840;12.184;2022-07-29T13:03:45;19.93;;;19.43;;
2892;SDS011;1456;51.840;12.184;2022-07-29T13:09:10;20.70;;;20.00;;
2892;SDS011;1456;51.840;12.184;2022-07-29T13:11:41;21.03;;;20.50;;
2892;SDS011;1456;51.840;12.184;2022-07-29T13:14:10;18.50;;;18.10;;
2892;SDS011;1456;51.840;12.184;2022-07-29T13:17:00;19.90;;;19.40;;
2892;SDS011;1456;51.840;12.184;2022-07-29T13:22:07;18.57;;;17.97;;
2892;SDS011;1456;51.840;12.184;2022-07-29T13:24:54;19.40;;;18.70;;
2892;SDS011;1456;51.840;12.184;2022-07-29T13:27:25;19.03;;;18.43;;
2892;SDS011;1456;51.840;12.184;2022-07-29T13:29:52;19.83;;;19.23;;
2892;SDS011;1456;51.840;12.184;2022-07-29T13:32:21;19.50;;;19.00;;
2892;SDS011;1456;51.840;12.184;2022-07-29T13:34:47;20.30;;;19.80;;
2892;SDS011;1456;51.840;12.184;2022-07-29T13:37:13;20.33;;;19.83;;
2892;SDS011;1456;51.840;12.184;2022-07-29T13:39:39;20.40;;;19.87;;
2892;SDS011;1456;51.840;12.184;2022-07-29T13:42:06;20.93;;;20.33;;
2892;SDS011;1456;51.840;12.184;2022-07-29T13:44:32;18.70;;;18.30;;
2892;SDS011;1456;51.840;12.184;2022-07-29T13:46:58;19.47;;;18.97;;
2892;SDS011;1456;51.840;12.184;2022-07-29T13:49:24;18.60;;;18.10;;
2892;SDS011;1456;51.840;12.184;2022-07-29T13:51:51;19.90;;;19.30;;
2892;SDS011;1456;51.840;12.184;2022-07-29T13:54:17;19.83;;;19.30;;
2892;SDS011;1456;51.840;12.184;2022-07-29T13:56:42;19.83;;;19.23;;
2892;SDS011;1456;51.840;12.184;2022-07-29T13:59:08;12.00;;;11.80;;
2892;SDS011;1456;51.840;12.184;2022-07-29T14:01:34;12.90;;;12.60;;
2892;SDS011;1456;51.840;12.184;2022-07-29T14:04:00;14.80;;;14.30;;
2892;SDS011;1456;51.840;12.184;2022-07-29T14:06:26;13.60;;;13.20;;
2892;SDS011;1456;51.840;12.184;2022-07-29T14:08:52;13.27;;;12.97;;
2892;SDS011;1456;51.840;12.184;2022-07-29T14:11:17;12.70;;;12.40;;
2892;SDS011;1456;51.840;12.184;2022-07-29T14:13:43;12.90;;;12.60;;
2892;SDS011;1456;51.840;12.184;2022-07-29T14:16:09;13.03;;;12.73;;
2892;SDS011;1456;51.840;12.184;2022-07-29T14:18:35;12.87;;;12.57;;
2892;SDS011;1456;51.840;12.184;2022-07-29T14:21:00;13.43;;;13.00;;
2892;SDS011;1456;51.840;12.184;2022-07-29T14:23:26;13.10;;;12.80;;
2892;SDS011;1456;51.840;12.184;2022-07-29T14:25:52;13.23;;;12.93;;
2892;SDS011;1456;51.840;12.184;2022-07-29T14:28:18;13.20;;;12.90;;
2892;SDS011;1456;51.840;12.184;2022-07-29T14:30:43;19.13;;;18.63;;
2892;SDS011;1456;51.840;12.184;2022-07-29T14:33:09;19.30;;;18.80;;
2892;SDS011;1456;51.840;12.184;2022-07-29T14:35:35;20.30;;;19.73;;
2892;SDS011;1456;51.840;12.184;2022-07-29T14:38:00;20.00;;;19.50;;
2892;SDS011;1456;51.840;12.184;2022-07-29T14:40:26;19.60;;;19.10;;
2892;SDS011;1456;51.840;12.184;2022-07-29T14:42:52;19.70;;;19.20;;
2892;SDS011;1456;51.840;12.184;2022-07-29T14:45:17;20.70;;;20.10;;
2892;SDS011;1456;51.840;12.184;2022-07-29T14:47:43;18.97;;;18.47;;
2892;SDS011;1456;51.840;12.184;2022-07-29T14:50:09;19.53;;;18.93;;
2892;SDS011;1456;51.840;12.184;2022-07-29T14:52:35;19.70;;;19.10;;
2892;SDS011;1456;51.840;12.184;2022-07-29T14:55:02;19.40;;;18.90;;
2892;SDS011;1456;51.840;12.184;2022-07-29T14:57:28;19.97;;;19.30;;
2892;SDS011;1456;51.840;12.184;2022-07-29T14:59:54;19.50;;;19.00;;
2892;SDS011;1456;51.840;12.184;2022-07-29T15:02:20;20.77;;;20.27;;
2892;SDS011;1456;51.840;12.184;2022-07-29T15:04:46;19.87;;;19.30;;
2892;SDS011;1456;51.840;12.184;2022-07-29T15:07:13;19.97;;;19.37;;
2892;SDS011;1456;51.840;12.184;2022-07-29T15:09:39;20.77;;;20.17;;
2892;SDS011;1456;51.840;12.184;2022-07-29T15:12:05;20.60;;;20.00;;
2892;SDS011;1456;51.840;12.184;2022-07-29T15:14:31;21.50;;;20.90;;
2892;SDS011;1456;51.840;12.184;2022-07-29T15:16:57;21.40;;;20.80;;
2892;SDS011;1456;51.840;12.184;2022-07-29T15:19:23;20.57;;;20.07;;
2892;SDS011;1456;51.840;12.184;2022-07-29T15:21:49;19.00;;;18.50;;
2892;SDS011;1456;51.840;12.184;2022-07-29T15:24:18;20.30;;;19.80;;
2892;SDS011;1456;51.840;12.184;2022-07-29T15:26:44;19.60;;;19.10;;
2892;SDS011;1456;51.840;12.184;2022-07-29T15:29:10;21.30;;;20.73;;
2892;SDS011;1456;51.840;12.184;2022-07-29T15:31:36;21.10;;;20.50;;
2892;SDS011;1456;51.840;12.184;2022-07-29T15:34:02;20.83;;;20.27;;
2892;SDS011;1456;51.840;12.184;2022-07-29T15:36:27;20.23;;;19.73;;
2892;SDS011;1456;51.840;12.184;2022-07-29T15:38:53;19.80;;;19.30;;
2892;SDS011;1456;51.840;12.184;2022-07-29T15:41:19;21.03;;;20.47;;